• Join FlightAware (Why Join?)
  • Login
  • US Flag 
03:32AM EDT


 

Airport Tracker/Info


-or-


 

Live Flight TrackerFlight Track Log ✈ AWI3551 ✈ 09-May-2013 ✈ KBUF - KPHL

Flight Track Log - Related Links

Times and Time Zones

All times are in EDT time to prevent confusion due to time zone crossing. See the AWI3551 flight status page for this flight to view local times or setup timezone preferences in your user account.

Time Position Orientation Groundspeed Altitude Reporting Facility
EDT Latitude Longitude Course Direction KTS MPH feet Rate Location/Type
05:30AM 42.9333 -78.7500 174° South 158 182 1,700  Level Buffalo TRACON
05:32AM 42.8667 -78.7833 200° South 212 244 4,000 1,980 Climbing Buffalo TRACON
05:32AM 42.8256 -78.7856 182° South 242 278 5,600 2,100 Climbing Cleveland Center
05:33AM 42.6240 -78.6848 172° South  Level FlightAware Approximate
05:33AM 42.7461 -78.7625 168° South 253 291 8,000  Level Cleveland Center
05:34AM 42.5213 -78.6647 173° South  Level FlightAware Approximate
05:34AM 42.6667 -78.7450 171° South 276 318 9,900  Level Cleveland Center
05:35AM 42.4182 -78.6500 180° South  Level FlightAware Approximate
05:35AM 42.5975 -78.7272 169° South 282 325 11,900  Level Cleveland Center
05:36AM 42.3148 -78.6426 174° South  Level FlightAware Approximate
05:36AM 42.5217 -78.6758 153° Southeast 287 330 14,200  Level Cleveland Center
05:37AM 42.4414 -78.6164 151° Southeast 307 353 16,000 1,740 Climbing Cleveland Center
05:38AM 42.3589 -78.5544 151° Southeast 329 379 17,700 1,680 Climbing Cleveland Center
05:39AM 42.2703 -78.4900 152° Southeast 351 404 19,400 1,740 Climbing Cleveland Center
05:40AM 42.1711 -78.4175 152° Southeast 363 418 21,200 1,560 Climbing Cleveland Center
05:41AM 42.0800 -78.3506 151° Southeast 368 423 22,600 1,320 Climbing Cleveland Center
05:42AM 41.9869 -78.2783 150° Southeast 373 429 23,900 840 Climbing Cleveland Center
05:44AM 41.8228 -78.1608 152° Southeast 386 444 25,000 360 Climbing New York Center
05:45AM 41.7269 -78.0919 152° Southeast 392 451 25,000  Level New York Center
05:46AM 41.6314 -78.0206 151° Southeast 397 457 25,000  Level New York Center
05:47AM 41.5356 -77.9519 152° Southeast 397 457 25,000  Level New York Center
05:48AM 41.4456 -77.8869 152° Southeast 392 451 25,000  Level New York Center
05:49AM 41.3581 -77.8194 150° Southeast 392 451 25,000  Level New York Center
05:50AM 41.2639 -77.7544 153° Southeast 392 451 25,000 -360 Level New York Center
05:51AM 41.1722 -77.6844 150° Southeast 392 451 24,300 -840 Descending New York Center
05:52AM 41.0781 -77.6197 153° Southeast 392 451 23,300 -1,020 Descending New York Center
05:53AM 40.9881 -77.5503 150° Southeast 387 445 22,300 -1,020 Descending New York Center
05:54AM 40.9117 -77.4656 140° Southeast 372 428 21,300 -1,020 Descending New York Center
05:55AM 40.8372 -77.3789 139° Southeast 366 421 20,300 -1,080 Descending New York Center
05:56AM 40.7528 -77.2856 140° Southeast 366 421 19,200 -660 Descending New York Center
05:57AM 40.6803 -77.2022 139° Southeast 360 414 19,000 -120 Descending New York Center
05:58AM 40.6181 -77.1225 136° Southeast 360 414 19,000  Level New York Center
05:59AM 40.5550 -77.0156 128° Southeast 339 390 19,000  Level New York Center
06:00AM 40.5011 -76.9261 128° Southeast 334 384 19,000  Level New York Center
06:01AM 40.4397 -76.8225 128° Southeast 339 390 19,000 -60 Level New York Center
06:02AM 40.3822 -76.7247 128° Southeast 339 390 18,900 -600 Descending New York Center
06:03AM 40.3483 -76.6100 111° Southeast 339 390 17,900 -1,080 Descending New York Center
06:04AM 40.3144 -76.4928 111° Southeast 339 390 16,800 -1,020 Descending New York Center
06:05AM 40.2819 -76.3922 113° Southeast 339 390 15,900 -1,020 Descending New York Center
06:06AM 40.2461 -76.2669 111° Southeast 334 384 14,800 -1,020 Descending New York Center
06:07AM 40.2147 -76.1747 114° Southeast 319 367 13,900 -1,140 Descending New York Center
06:08AM 40.1764 -76.0575 113° Southeast 314 361 12,600 -1,500 Descending New York Center
06:09AM 40.1433 -75.9544 113° Southeast 309 356 10,900 -1,680 Descending New York Center
06:10AM 40.1117 -75.8708 116° Southeast 294 338 9,300 -1,620 Descending New York Center
06:11AM 40.0433 -75.8089 145° Southeast 273 314 7,700 -1,560 Descending New York Center
06:12AM 39.9872 -75.7586 146° Southeast 273 314 6,300 -900 Descending New York Center
06:13AM 39.9217 -75.7297 161° South 244 281 6,000 -480 Descending New York Center
06:14AM 39.8658 -75.7231 175° South 232 267 5,400 -540 Descending New York Center
06:15AM 39.8011 -75.7211 179° South 227 261 5,000 -240 Descending New York Center
06:16AM 39.7539 -75.7017 162° South 204 235 5,000 -480 Level New York Center
06:17AM 39.7672 -75.6322 76° East 150 173 4,100 -540 Descending New York Center
06:18AM 39.7989 -75.5778 53° Northeast 167 192 4,000 -360 Descending New York Center
06:19AM 39.8164 -75.5006 74° East 194 223 3,500 -780 Descending New York Center
06:20AM 39.8317 -75.4311 74° East 201 231 2,500 -1,020 Descending New York Center